Kanawha City, West Virginia
Current Conditions -  °F | °C
As of 2:54 PM on Sunday 23 Nov 2014 (Local Time) from KCRW Reporting Station
Broken Clouds Broken Clouds  
Wind Chill: 62°   Ceiling: 17000
Heat Index: 62°   Visibility: 10mi
Dew Point: 42°   Wind: 9mph
Humidity: 48%   Direction: 150°SSE
Pressure: 29.83"   Gusts: 20mph
Location:  38.301°N, 81.5932°W
Report Text: KCRW 231954Z 15008G17KT 10SM SCT110 BKN170 BKN300 17/06 A2983 RMK AO2 SLP102 BKN V OVC T01670056
Loading
Personal Weather Stations






























Interactive Weather Map New forecast layout! Learn more

10-Day Weather Forecast

Advertisements
Track Severe Weather on mobile